CheckWX is a tool to help pilots better visualize weather data.  It is not intended as a substitute for an official pre-flight weather briefing.

10:19:41 UTC

KGSP TAF
Greenville Spartanburg International Airport
Greer, South Carolina, USA
KGSP 031123Z 0312/0412 VRB02KT P6SM SCT080 FM031500 02004KT P6SM FEW045 FM031700 05004KT P6SM FEW060 FM032300 13003KT P6SM FEW060 SCT250

Jul-3@
12:00 UTC

Jul-3 @ 12:00 UTC

Jul-3@
15:00 UTC

Jul-3 @ 15:00 UTC

TAF KGSP 031123Z 0312/0412 VRB02KT P6SM SCT080

Expired

Wind
  • Variable at 2 KTS
Cloud Levels
  • Scattered at 8,000' AGL

Jul-3@
15:00 UTC

Jul-3 @ 15:00 UTC

Jul-3@
17:00 UTC

Jul-3 @ 17:00 UTC

FM031500 02004KT P6SM FEW045

Expired

Wind
  • 020° at 4 KTS
Cloud Levels
  • Few at 4,500' AGL

Jul-3@
17:00 UTC

Jul-3 @ 17:00 UTC

Jul-3@
23:00 UTC

Jul-3 @ 23:00 UTC

FM031700 05004KT P6SM FEW060

Expired

Wind
  • 050° at 4 KTS
Cloud Levels
  • Few at 6,000' AGL

Jul-3@
23:00 UTC

Jul-3 @ 23:00 UTC

Jul-4@
12:00 UTC

Jul-4 @ 12:00 UTC

FM032300 13003KT P6SM FEW060 SCT250

From

From Standard forecast or significant change

Wind
  • 130° at 3 KTS
Cloud Levels
  • Few at 6,000' AGL
  • Scattered at 25,000' AGL